createdAt,value
2023-03-30T00:01:02.291Z,13.80
2023-03-30T00:03:30.028Z,13.90
2023-03-30T00:06:02.700Z,13.80
2023-03-30T00:08:30.130Z,13.70
2023-03-30T00:11:06.164Z,13.60
2023-03-30T00:13:35.316Z,13.60
2023-03-30T00:16:05.044Z,13.60
2023-03-30T00:18:34.367Z,13.60
2023-03-30T00:21:04.833Z,13.50
2023-03-30T00:23:32.641Z,13.50
2023-03-30T00:25:59.927Z,13.40
2023-03-30T00:28:30.553Z,13.50
2023-03-30T00:30:59.135Z,13.50
2023-03-30T00:33:41.334Z,13.60
2023-03-30T00:36:12.105Z,13.50
2023-03-30T00:38:40.452Z,13.50
2023-03-30T00:41:07.922Z,13.40
2023-03-30T00:43:35.397Z,13.40
2023-03-30T00:46:02.732Z,13.40
2023-03-30T00:48:36.797Z,13.40
2023-03-30T00:51:09.670Z,13.40
2023-03-30T00:53:44.127Z,13.40
2023-03-30T00:56:14.037Z,13.40
2023-03-30T00:58:43.610Z,13.40
2023-03-30T01:01:14.536Z,13.30
2023-03-30T01:03:47.951Z,13.20
2023-03-30T01:06:21.852Z,13.10
2023-03-30T01:08:50.846Z,13.00
2023-03-30T01:11:18.259Z,13.00
2023-03-30T01:13:47.851Z,13.00
2023-03-30T01:16:33.429Z,13.00
2023-03-30T01:19:29.537Z,12.90
2023-03-30T01:22:14.719Z,12.80
2023-03-30T01:25:07.429Z,12.80
2023-03-30T01:27:57.475Z,12.80
2023-03-30T01:30:54.987Z,12.60
2023-03-30T01:33:59.412Z,12.70
2023-03-30T01:36:35.797Z,12.70
2023-03-30T01:39:15.743Z,12.60
2023-03-30T01:42:01.518Z,12.60
2023-03-30T01:44:42.852Z,12.60
2023-03-30T01:47:19.259Z,12.60
2023-03-30T01:50:05.569Z,12.70
2023-03-30T01:53:00.272Z,12.60
2023-03-30T01:55:44.060Z,12.70
2023-03-30T01:58:31.357Z,12.80
2023-03-30T02:01:01.545Z,12.70
2023-03-30T02:03:32.524Z,12.80
2023-03-30T02:06:10.551Z,12.70
2023-03-30T02:08:39.222Z,12.70
2023-03-30T02:11:07.662Z,12.60
2023-03-30T02:13:37.765Z,12.60
2023-03-30T02:16:16.459Z,12.60
2023-03-30T02:18:46.438Z,12.60
2023-03-30T02:21:13.866Z,12.40
2023-03-30T02:23:45.276Z,12.50
2023-03-30T02:26:13.566Z,12.40
2023-03-30T02:28:40.977Z,12.30
2023-03-30T02:31:16.953Z,12.30
2023-03-30T02:34:16.817Z,12.30
2023-03-30T02:37:28.908Z,12.20
2023-03-30T02:39:58.895Z,12.20
2023-03-30T02:42:32.535Z,12.30
2023-03-30T02:45:22.822Z,12.30
2023-03-30T02:48:18.341Z,12.30
2023-03-30T02:50:56.485Z,12.30
2023-03-30T02:54:01.537Z,12.30
2023-03-30T02:56:57.958Z,12.30
2023-03-30T02:59:34.144Z,12.30
2023-03-30T03:02:06.635Z,12.30
2023-03-30T03:04:34.980Z,12.30
2023-03-30T03:07:24.468Z,12.30
2023-03-30T03:09:51.948Z,12.40
2023-03-30T03:12:19.679Z,12.30
2023-03-30T03:14:47.762Z,12.30
2023-03-30T03:17:22.070Z,12.30
2023-03-30T03:19:49.873Z,12.20
2023-03-30T03:22:19.245Z,12.30
2023-03-30T03:24:46.793Z,12.20
2023-03-30T03:27:43.821Z,12.20
2023-03-30T03:30:20.352Z,12.20
2023-03-30T03:32:58.038Z,12.10
2023-03-30T03:35:27.479Z,12.00
2023-03-30T03:37:54.699Z,12.00
2023-03-30T03:40:21.955Z,11.90
2023-03-30T03:42:51.838Z,11.80
2023-03-30T03:45:19.390Z,11.80
2023-03-30T03:47:59.533Z,11.80
2023-03-30T03:50:43.788Z,11.80
2023-03-30T03:53:12.392Z,11.80
2023-03-30T03:55:39.630Z,11.80
2023-03-30T03:58:07.939Z,11.80
2023-03-30T04:00:36.602Z,11.80
2023-03-30T04:03:05.084Z,11.80
2023-03-30T04:05:32.538Z,11.80
2023-03-30T04:08:00.094Z,11.80
2023-03-30T04:10:27.847Z,11.80
2023-03-30T04:13:13.090Z,11.80
2023-03-30T04:15:50.440Z,11.90
2023-03-30T04:18:36.429Z,11.90
2023-03-30T04:21:32.001Z,11.90
2023-03-30T04:24:16.022Z,12.00
2023-03-30T04:27:09.574Z,12.00
2023-03-30T04:30:02.071Z,12.00
2023-03-30T04:33:02.360Z,12.00
2023-03-30T04:35:48.102Z,12.00
2023-03-30T04:38:31.024Z,11.90
2023-03-30T04:41:18.490Z,11.90
2023-03-30T04:44:10.309Z,12.00
2023-03-30T04:46:57.611Z,12.00
2023-03-30T04:49:51.442Z,12.10
2023-03-30T04:52:51.133Z,12.10
2023-03-30T04:55:41.818Z,12.10
2023-03-30T04:58:22.051Z,12.10
2023-03-30T05:01:10.286Z,12.10
2023-03-30T05:04:04.030Z,12.10
2023-03-30T05:06:51.666Z,12.10
2023-03-30T05:09:41.167Z,12.10
2023-03-30T05:12:46.919Z,12.10
2023-03-30T05:16:05.514Z,12.10
2023-03-30T05:18:41.800Z,12.00
2023-03-30T05:21:32.698Z,12.00
2023-03-30T05:24:39.048Z,12.00
2023-03-30T05:27:13.472Z,12.10
2023-03-30T05:30:04.093Z,12.10
2023-03-30T05:33:00.400Z,12.20
2023-03-30T05:35:42.587Z,12.20
2023-03-30T05:38:18.487Z,12.30
2023-03-30T05:40:54.087Z,12.40
2023-03-30T05:43:32.777Z,12.30
2023-03-30T05:46:35.634Z,12.30
2023-03-30T05:49:28.139Z,12.40
2023-03-30T05:52:12.408Z,12.30
2023-03-30T05:55:09.140Z,12.30
2023-03-30T05:57:56.922Z,12.30
2023-03-30T06:00:47.511Z,12.40
2023-03-30T06:03:24.506Z,12.50
2023-03-30T06:05:53.961Z,12.60
2023-03-30T06:08:22.850Z,12.60
2023-03-30T06:10:56.173Z,12.60
2023-03-30T06:13:25.669Z,12.60
2023-03-30T06:15:53.536Z,12.60
2023-03-30T06:18:23.693Z,12.70
2023-03-30T06:21:02.192Z,12.70
2023-03-30T06:23:30.377Z,12.70
2023-03-30T06:26:01.994Z,12.70
2023-03-30T06:28:33.236Z,12.80
2023-03-30T06:31:03.150Z,12.80
2023-03-30T06:33:31.510Z,12.90
2023-03-30T06:36:01.825Z,12.90
2023-03-30T06:38:29.530Z,12.80
2023-03-30T06:41:00.298Z,12.80
2023-03-30T06:43:29.071Z,12.80
2023-03-30T06:46:15.810Z,12.90
2023-03-30T06:48:46.868Z,12.90
2023-03-30T06:51:36.606Z,12.90
2023-03-30T06:54:05.481Z,12.90
2023-03-30T06:56:33.808Z,12.90
2023-03-30T06:59:07.710Z,12.90
2023-03-30T07:01:55.534Z,13.00
2023-03-30T07:04:39.551Z,13.00
2023-03-30T07:07:20.923Z,13.00
2023-03-30T07:09:49.361Z,13.00
2023-03-30T07:12:16.727Z,12.90
2023-03-30T07:14:45.878Z,12.90
2023-03-30T07:17:13.291Z,12.90
2023-03-30T07:19:40.690Z,12.90
2023-03-30T07:22:09.774Z,13.00
2023-03-30T07:24:37.444Z,13.00
2023-03-30T07:27:04.999Z,13.10
2023-03-30T07:29:33.752Z,13.20
2023-03-30T07:32:01.618Z,13.20
2023-03-30T07:34:29.665Z,13.30
2023-03-30T07:36:58.601Z,13.30
2023-03-30T07:39:30.106Z,13.40
2023-03-30T07:41:58.494Z,13.40
2023-03-30T07:44:29.189Z,13.40
2023-03-30T07:46:58.495Z,13.50
2023-03-30T07:49:27.035Z,13.50
2023-03-30T07:51:54.980Z,13.50
2023-03-30T07:54:27.587Z,13.40
2023-03-30T07:57:13.443Z,13.40
2023-03-30T07:59:41.567Z,13.50
2023-03-30T08:02:29.106Z,13.50
2023-03-30T08:04:57.120Z,13.50
2023-03-30T08:07:32.473Z,13.60
2023-03-30T08:10:09.029Z,13.70
2023-03-30T08:12:37.737Z,13.70
2023-03-30T08:15:05.559Z,13.70
2023-03-30T08:17:32.825Z,13.70
2023-03-30T08:20:01.671Z,13.70
2023-03-30T08:22:28.930Z,13.70
2023-03-30T08:24:57.066Z,13.70
2023-03-30T08:27:24.418Z,13.70
2023-03-30T08:29:54.322Z,13.70
2023-03-30T08:32:21.576Z,13.70
2023-03-30T08:34:48.879Z,13.70
2023-03-30T08:37:22.728Z,13.70
2023-03-30T08:39:50.064Z,13.80
2023-03-30T08:42:27.280Z,13.80
2023-03-30T08:58:50.805Z,13.80
2023-03-30T09:01:36.547Z,14.30
2023-03-30T09:04:38.055Z,14.30
2023-03-30T09:07:39.580Z,14.30
2023-03-30T09:10:12.733Z,14.30
2023-03-30T09:12:43.843Z,14.20
2023-03-30T09:15:19.433Z,14.20
2023-03-30T09:17:52.438Z,14.10
2023-03-30T09:20:24.722Z,14.20
2023-03-30T09:22:54.665Z,14.20
2023-03-30T09:25:40.702Z,14.20
2023-03-30T09:28:31.380Z,14.20
2023-03-30T09:31:21.930Z,14.30
2023-03-30T09:34:21.836Z,14.50
2023-03-30T09:37:11.822Z,14.40
2023-03-30T09:39:41.198Z,14.40
2023-03-30T09:42:27.163Z,14.20
2023-03-30T09:45:19.522Z,14.10
2023-03-30T09:47:47.003Z,14.10
2023-03-30T09:50:22.568Z,14.10
2023-03-30T09:52:59.440Z,14.20
2023-03-30T09:55:57.356Z,14.20
2023-03-30T09:58:33.292Z,14.30
2023-03-30T10:01:05.910Z,14.30
2023-03-30T10:03:35.322Z,14.40
2023-03-30T10:06:19.633Z,14.30
2023-03-30T10:08:55.370Z,14.20
2023-03-30T10:11:50.933Z,14.10
2023-03-30T10:14:29.339Z,14.20
2023-03-30T10:17:00.890Z,14.30
2023-03-30T10:19:29.571Z,14.40
2023-03-30T10:21:59.023Z,14.40
2023-03-30T10:24:29.396Z,14.50
2023-03-30T10:26:59.707Z,14.60
2023-03-30T10:29:36.305Z,14.60
2023-03-30T10:32:17.698Z,14.70
2023-03-30T10:34:49.084Z,14.80
2023-03-30T10:37:22.991Z,14.80
2023-03-30T10:39:52.290Z,14.70
2023-03-30T10:42:25.145Z,14.70
2023-03-30T10:44:59.262Z,14.70
2023-03-30T10:47:32.472Z,14.70
2023-03-30T10:50:15.179Z,14.80
2023-03-30T10:53:17.237Z,14.70
2023-03-30T10:56:03.414Z,14.80
2023-03-30T10:59:11.185Z,14.80
2023-03-30T11:01:49.016Z,14.80
2023-03-30T11:04:43.583Z,14.70
2023-03-30T11:07:21.000Z,14.80
2023-03-30T11:09:58.583Z,14.80
2023-03-30T11:12:34.105Z,14.80
2023-03-30T11:15:18.120Z,14.80
2023-03-30T11:18:10.449Z,14.80
2023-03-30T11:20:46.058Z,14.80
2023-03-30T11:23:51.495Z,14.90
2023-03-30T11:26:25.224Z,14.90
2023-03-30T11:29:30.286Z,14.90
2023-03-30T11:32:01.100Z,14.90
2023-03-30T11:34:48.510Z,14.80
2023-03-30T11:37:29.847Z,14.80
2023-03-30T11:40:14.518Z,14.90
2023-03-30T11:42:42.451Z,15.10
2023-03-30T11:45:36.415Z,15.00
2023-03-30T11:48:28.268Z,15.10
2023-03-30T11:51:02.361Z,15.30
2023-03-30T11:53:38.795Z,15.30
2023-03-30T11:56:27.152Z,15.40
2023-03-30T11:59:06.526Z,15.60
2023-03-30T12:01:51.868Z,15.90
2023-03-30T12:04:48.950Z,16.30
2023-03-30T12:07:24.979Z,16.50
2023-03-30T12:10:32.376Z,16.50
2023-03-30T12:13:00.579Z,16.60
2023-03-30T12:15:46.733Z,16.80
2023-03-30T12:18:43.405Z,16.70
2023-03-30T12:21:38.348Z,16.80
2023-03-30T12:24:32.370Z,16.60
2023-03-30T12:27:06.129Z,16.80
2023-03-30T12:30:02.466Z,16.40
2023-03-30T12:32:34.708Z,16.60
2023-03-30T12:35:21.955Z,16.80
2023-03-30T12:37:49.287Z,16.80
2023-03-30T12:40:22.466Z,17.10
2023-03-30T12:43:09.975Z,17.20
2023-03-30T12:45:50.799Z,17.10
2023-03-30T12:48:34.550Z,16.90
2023-03-30T12:51:13.803Z,16.90
2023-03-30T12:54:16.833Z,17.00
2023-03-30T12:57:08.619Z,17.20
2023-03-30T12:59:59.070Z,16.50
2023-03-30T13:02:44.702Z,16.60
2023-03-30T13:05:33.509Z,17.00
2023-03-30T13:08:07.907Z,17.30
2023-03-30T13:10:37.626Z,17.10
2023-03-30T13:13:06.015Z,17.30
2023-03-30T13:15:39.272Z,17.40
2023-03-30T13:18:09.304Z,17.50
2023-03-30T13:20:56.537Z,17.60
2023-03-30T13:23:26.976Z,17.60
2023-03-30T13:26:34.686Z,17.50
2023-03-30T13:29:11.590Z,17.50
2023-03-30T13:32:06.987Z,17.60
2023-03-30T13:34:48.952Z,17.70
2023-03-30T13:37:53.525Z,17.70
2023-03-30T13:40:40.314Z,17.90
2023-03-30T13:43:26.994Z,17.90
2023-03-30T13:46:21.937Z,18.00
2023-03-30T13:49:30.048Z,18.10
2023-03-30T13:52:24.857Z,18.10
2023-03-30T13:54:52.485Z,17.90
2023-03-30T13:57:30.352Z,17.80
2023-03-30T14:00:08.125Z,17.70
2023-03-30T14:02:39.799Z,17.80
2023-03-30T14:05:26.241Z,17.70
2023-03-30T14:07:59.603Z,17.80
2023-03-30T14:10:27.491Z,18.00
2023-03-30T14:12:57.111Z,18.10
2023-03-30T14:15:34.922Z,18.20
2023-03-30T14:18:04.651Z,18.10
2023-03-30T14:20:41.205Z,18.00
2023-03-30T14:23:19.151Z,18.00
2023-03-30T14:25:46.662Z,18.00
2023-03-30T14:28:21.928Z,18.00
2023-03-30T14:30:58.610Z,18.00
2023-03-30T14:33:26.472Z,18.00
2023-03-30T14:35:59.134Z,17.80
2023-03-30T14:38:29.942Z,17.60
2023-03-30T14:40:59.710Z,17.50
2023-03-30T14:43:31.734Z,17.50
2023-03-30T14:46:04.943Z,17.40
2023-03-30T14:48:35.334Z,17.50
2023-03-30T14:51:03.631Z,17.60
2023-03-30T14:53:31.391Z,17.60
2023-03-30T14:56:01.288Z,17.70
2023-03-30T14:58:31.647Z,17.70
2023-03-30T15:01:01.271Z,17.90
2023-03-30T15:03:34.424Z,18.00
2023-03-30T15:06:04.943Z,18.20
2023-03-30T15:08:36.488Z,18.40
2023-03-30T15:11:24.143Z,18.40
2023-03-30T15:14:01.594Z,18.10
2023-03-30T15:16:32.737Z,18.10
2023-03-30T15:19:10.177Z,18.00
2023-03-30T15:21:37.907Z,18.00
2023-03-30T15:24:13.023Z,18.00
2023-03-30T15:26:47.712Z,17.80
2023-03-30T15:29:18.173Z,17.80
2023-03-30T15:31:45.531Z,17.70
2023-03-30T15:34:17.540Z,17.50
2023-03-30T15:36:45.531Z,17.40
2023-03-30T15:39:24.985Z,17.50
2023-03-30T15:41:55.969Z,17.50
2023-03-30T15:44:23.498Z,17.40
2023-03-30T15:46:54.624Z,17.40
2023-03-30T15:49:28.069Z,17.30
2023-03-30T15:52:13.688Z,17.20
2023-03-30T15:54:50.623Z,17.10
2023-03-30T15:57:26.698Z,17.20
2023-03-30T16:00:02.968Z,17.10
2023-03-30T16:02:31.841Z,17.00
2023-03-30T16:05:01.986Z,17.10
2023-03-30T16:07:32.137Z,17.10
2023-03-30T16:09:59.386Z,17.00
2023-03-30T16:12:31.183Z,16.90
2023-03-30T16:14:58.785Z,17.00
2023-03-30T16:17:26.312Z,17.00
2023-03-30T16:19:53.560Z,17.10
2023-03-30T16:22:21.041Z,17.00
2023-03-30T16:24:48.429Z,17.00
2023-03-30T16:27:15.801Z,17.00
2023-03-30T16:29:43.366Z,17.00
2023-03-30T16:32:10.706Z,17.00
2023-03-30T16:34:37.974Z,16.90
2023-03-30T16:37:05.358Z,16.90
2023-03-30T16:39:44.670Z,16.90
2023-03-30T16:42:14.361Z,16.90
2023-03-30T16:44:41.642Z,16.90
2023-03-30T16:47:09.560Z,16.90
2023-03-30T16:49:36.784Z,16.90
2023-03-30T16:52:04.115Z,17.00
2023-03-30T16:54:32.989Z,17.00
2023-03-30T16:57:01.567Z,17.00
2023-03-30T16:59:30.555Z,17.00
2023-03-30T17:01:58.754Z,17.00
2023-03-30T17:04:26.542Z,16.90
2023-03-30T17:06:54.617Z,16.90
2023-03-30T17:09:22.192Z,16.80
2023-03-30T17:11:49.903Z,16.80
2023-03-30T17:14:17.228Z,16.80
2023-03-30T17:16:44.618Z,16.80
2023-03-30T17:19:13.394Z,16.80
2023-03-30T17:21:42.829Z,16.80
2023-03-30T17:24:11.117Z,16.70
2023-03-30T17:26:39.410Z,16.70
2023-03-30T17:29:07.216Z,16.70
2023-03-30T17:31:34.507Z,16.60
2023-03-30T17:34:01.821Z,16.60
2023-03-30T17:36:29.238Z,16.60
2023-03-30T17:38:56.745Z,16.50
2023-03-30T17:41:24.043Z,16.50
2023-03-30T17:43:51.468Z,16.50
2023-03-30T17:46:19.897Z,16.50
2023-03-30T17:48:47.618Z,16.50
2023-03-30T17:51:14.877Z,16.50
2023-03-30T17:53:42.721Z,16.60
2023-03-30T17:56:12.711Z,16.70
2023-03-30T17:58:40.325Z,16.70
2023-03-30T18:01:12.857Z,16.60
2023-03-30T18:03:40.696Z,16.50
2023-03-30T18:06:11.474Z,16.40
2023-03-30T18:08:39.567Z,16.40
2023-03-30T18:11:07.187Z,16.30
2023-03-30T18:13:34.985Z,16.30
2023-03-30T18:22:22.241Z,16.20
2023-03-30T18:24:52.242Z,16.10
2023-03-30T18:27:19.611Z,16.20
2023-03-30T18:29:47.989Z,16.20
2023-03-30T18:32:15.299Z,16.20
2023-03-30T18:34:42.755Z,16.20
2023-03-30T18:37:10.505Z,16.20
2023-03-30T18:39:38.898Z,16.20
2023-03-30T18:42:06.318Z,16.20
2023-03-30T18:44:33.632Z,16.20
2023-03-30T18:47:00.918Z,16.20
2023-03-30T18:49:28.331Z,16.20
2023-03-30T18:51:55.782Z,16.20
2023-03-30T18:54:23.039Z,16.10
2023-03-30T18:56:54.009Z,16.10
2023-03-30T18:59:24.774Z,16.10
2023-03-30T19:01:52.240Z,16.10
2023-03-30T19:04:19.849Z,16.10
2023-03-30T19:06:47.663Z,16.10
2023-03-30T19:09:15.029Z,16.10
2023-03-30T19:11:42.292Z,16.10
2023-03-30T19:14:11.940Z,16.10
2023-03-30T19:16:39.367Z,16.00
2023-03-30T19:19:09.665Z,15.90
2023-03-30T19:21:36.899Z,15.90
2023-03-30T19:24:04.823Z,15.90
2023-03-30T19:26:32.809Z,15.80
2023-03-30T19:29:00.834Z,15.90
2023-03-30T19:31:55.089Z,15.90
2023-03-30T19:34:41.906Z,15.80
2023-03-30T19:37:09.186Z,15.80
2023-03-30T19:39:36.735Z,15.80
2023-03-30T19:42:04.421Z,15.80
2023-03-30T19:44:31.652Z,15.80
2023-03-30T19:46:58.918Z,15.80
2023-03-30T19:49:29.590Z,15.80
2023-03-30T19:51:57.068Z,15.80
2023-03-30T19:54:27.552Z,15.80
2023-03-30T19:56:54.936Z,15.80
2023-03-30T19:59:22.368Z,15.70
2023-03-30T20:01:50.054Z,15.70
2023-03-30T20:04:17.348Z,15.70
2023-03-30T20:06:44.606Z,15.70
2023-03-30T20:09:11.941Z,15.70
2023-03-30T20:11:39.643Z,15.70
2023-03-30T20:14:07.381Z,15.70
2023-03-30T20:16:35.213Z,15.70
2023-03-30T20:19:10.792Z,15.60
2023-03-30T20:21:46.679Z,15.60
2023-03-30T20:24:14.110Z,15.60
2023-03-30T20:26:41.583Z,15.60
2023-03-30T20:29:08.903Z,15.60
2023-03-30T20:31:37.782Z,15.50
2023-03-30T20:34:05.269Z,15.50
2023-03-30T20:36:32.740Z,15.50
2023-03-30T20:41:58.095Z,15.40
2023-03-30T20:44:32.218Z,15.30
2023-03-30T20:46:59.695Z,15.30
2023-03-30T20:49:28.841Z,15.20
2023-03-30T20:52:00.748Z,15.20
2023-03-30T20:54:29.314Z,15.10
2023-03-30T20:56:57.133Z,15.00
2023-03-30T20:59:24.924Z,14.90
2023-03-30T21:01:52.329Z,14.80
2023-03-30T21:04:19.964Z,14.80
2023-03-30T21:06:47.694Z,14.70
2023-03-30T21:09:15.175Z,14.70
2023-03-30T21:11:42.609Z,14.60
2023-03-30T21:14:11.692Z,14.70
2023-03-30T21:16:42.140Z,14.60
2023-03-30T21:19:10.315Z,14.60
2023-03-30T21:21:38.389Z,14.50
2023-03-30T21:24:08.759Z,14.50
2023-03-30T21:26:36.891Z,14.50
2023-03-30T21:29:04.991Z,14.50
2023-03-30T21:31:32.902Z,14.40
2023-03-30T21:34:00.292Z,14.40
2023-03-30T21:36:27.673Z,14.40
2023-03-30T21:38:57.466Z,14.30
2023-03-30T21:41:26.114Z,14.20
2023-03-30T21:43:53.581Z,14.10
2023-03-30T21:46:23.211Z,14.00
2023-03-30T21:48:53.730Z,13.90
2023-03-30T21:51:24.596Z,13.90
2023-03-30T21:53:53.631Z,13.90
2023-03-30T21:56:23.512Z,13.80
2023-03-30T21:58:51.324Z,13.80
2023-03-30T22:01:20.254Z,13.80
2023-03-30T22:03:47.605Z,13.70
2023-03-30T22:06:17.154Z,13.60
2023-03-30T22:08:46.082Z,13.60
2023-03-30T22:11:16.592Z,13.60
2023-03-30T22:13:45.818Z,13.50
2023-03-30T22:16:22.442Z,13.50
2023-03-30T22:18:50.634Z,13.50
2023-03-30T22:21:20.883Z,13.40
2023-03-30T22:23:48.188Z,13.50
2023-03-30T22:26:16.007Z,13.50
2023-03-30T22:28:44.003Z,13.50
2023-03-30T22:31:13.917Z,13.50
2023-03-30T22:33:41.552Z,13.50
2023-03-30T22:36:23.728Z,13.40
2023-03-30T22:38:51.840Z,13.50
2023-03-30T22:41:23.696Z,13.40
2023-03-30T22:43:52.656Z,13.30
2023-03-30T22:46:21.666Z,13.20
2023-03-30T22:48:49.858Z,13.30
2023-03-30T22:51:25.888Z,13.20
2023-03-30T22:53:59.210Z,13.00
2023-03-30T22:56:28.277Z,13.00
2023-03-30T22:58:57.627Z,13.00
2023-03-30T23:01:24.989Z,13.00
2023-03-30T23:03:53.539Z,13.00
2023-03-30T23:06:21.404Z,13.10
2023-03-30T23:08:49.146Z,13.00
2023-03-30T23:11:17.087Z,13.00
2023-03-30T23:13:44.737Z,13.10
2023-03-30T23:16:12.065Z,13.00
2023-03-30T23:18:39.827Z,13.00
2023-03-30T23:21:13.976Z,13.00
2023-03-30T23:23:50.638Z,13.00
2023-03-30T23:26:19.549Z,13.00
2023-03-30T23:28:47.044Z,12.90
2023-03-30T23:31:17.677Z,12.90
2023-03-30T23:33:45.438Z,13.00
2023-03-30T23:36:13.655Z,12.90
2023-03-30T23:38:44.331Z,12.90
2023-03-30T23:41:18.500Z,12.80
2023-03-30T23:43:55.646Z,12.80
2023-03-30T23:46:23.656Z,12.80
2023-03-30T23:48:51.334Z,12.90
2023-03-30T23:51:18.614Z,13.00
2023-03-30T23:53:47.155Z,13.10
2023-03-30T23:56:17.064Z,13.10
2023-03-30T23:58:44.914Z,13.10
